NWS Home NWS Lubbock West Texas Mesonet Latest Conditions as of 0319 AM, Thu Nov 15, 2018

Latest   N   C   S   Daily Sum   3hrΔ   24hrΔ   Soil Data 
Site Map   24hr Precip   72hr Precip   Google Plot


Station Time of Last Temp Dew Pt. RH Wind Direction Wind Speed Wind Gust Max Wind Max Temp Min Temp Max RH Min RH Altimeter 1HR Rain Today's Rain Solar Rad Wind ChillRFTI
Abernathy 5ENE  03:15 AM 32 29 90% W1012 12 mph 261° @ 0315 AM 33 30 92 86 30.23" 0 0 0 24 0
Adrian 6WSW  03:15 AM 40 25 55% SW1517 19 mph 238° @ 0222 AM 42 38 60 52 30.19" 0 0 0   0
Aiken 3WSW  03:15 AM 30 27 87% SW89 10 mph 222° @ 0140 AM 32 28 89 81 30.23" 0 0 0 23 0
Amarillo 15NNW   03:15 AM 30 28 90% W89 10 mph 274° @ 0211 AM 34 30 90 77 30.18" 0 0 0 23 0
Amarillo 7SSE  03:15 AM 33 28 83% SW1215 15 mph 246° @ 0315 AM 33 26 93 82 30.19" 0 0 0 24 0
Amarillo 9NNE  03:15 AM 33 27 80% SE01 10 mph 169° @ 1229 AM 35 31 85 73 30.18" 0 0 0   0
Amherst 1NE  03:15 AM 33 25 72% SW910 13 mph 244° @ 0255 AM 35 33 74 69 30.22" 0 0 0 25 0
Andrews 2E  03:15 AM 35 25 67% SW89 9 mph 248° @ 0220 AM 38 35 67 61 30.26" 0 0 0 29 0
Anton 6SSW  03:15 AM 29 26 91% W67 12 mph 227° @ 1255 AM 35 29 91 78 30.23" 0 0 0 23 0
Aspermont 3NE  03:15 AM 31 27 86% SW44 7 mph 195° @ 0150 AM 34 30 86 77 30.24" 0 0 0   0
Big Bend NP - Persimmon Gap  03:00 AM 35 18 50% S23 5 mph 206° @ 0222 AM 39 35 52 40 30.31" 0 0 0   0
Big Lake 1WNW  03:15 AM 33 26 74% S33 6 mph 179° @ 0139 AM 38 33 74 63 30.28" 0 0 0   0
Bootleg 11WNW  03:15 AM 33 24 69% SW1315 16 mph 231° @ 0227 AM 34 30 78 69 30.22" 0 0 0 23 0
Boys Ranch 1WSW  03:15 AM 27 25 90% NW34 9 mph 288° @ 0302 AM 28 24 98 90 30.20" 0 0 0   0
Brownfield 2S  03:15 AM 31 26 85% W67 8 mph 224° @ 1205 AM 37 31 85 66 30.24" 0 0 0 25 0
Canadian 6E  03:15 AM 29 27 92% NW78 10 mph 301° @ 0255 AM 32 28 94 85 30.14" 0 0 0 22 0
Caprock Canyons State Park  03:15 AM 44 29 55% SW1922 24 mph 248° @ 0312 AM 44 38 71 54 30.20" 0 0 0   0
Childress 2NNE  03:15 AM 38 29 72% SW1012 16 mph 209° @ 0115 AM 39 36 75 64 30.19" 0 0 0   0
Clarendon 2WSW  03:15 AM 37 28 70% SW1112 12 mph 225° @ 0205 AM 38 32 81 67 30.18" 0 0 0   0
Claude 12SW  03:15 AM 41 27 57% SW1114 18 mph 234° @ 0306 AM 42 39 59 54 30.18" 0 0 0   0
Clyde 2WNW  03:15 AM 36 21 53% S68 14 mph 172° @ 0116 AM 38 36 53 48 30.25" 0 0 0   0
Colorado City 5NW  03:09 AM 30 27 89% SE55 6 mph 175° @ 1221 AM 35 30 89 75 30.27" 0 0 0   0
Coyanosa 2N  03:15 AM 32 27 81% NW22 12 mph 203° @ 0110 AM 39 32 83 63 30.28" 0 0 0   0
Crane 1NNW   03:15 AM 31 28 88% NE33 5 mph 97° @ 1248 AM 34 31 88 80 30.28" 0 0 0   0
Crowell 1E  03:15 AM 32 27 83% SW67 9 mph 224° @ 1201 AM 35 31 85 75 30.23" 0 0 0 26 0
Dell City  03:15 AM 29 22 75% NW33 8 mph 279° @ 0143 AM 33 29 76 64 30.32" 0 0 0   0
Denver City 7WNW  03:15 AM 29 22 76% NW89 10 mph 240° @ 1245 AM 34 28 79 63 30.24" 0 0 0 21 0
Dimmitt 2NE  03:15 AM 34 27 76% SW1012 15 mph 239° @ 0200 AM 35 34 79 74 30.20" 0 0 0 26 0
Dora NM 2SW  03:15 AM 35 22 58% SW1012 12 mph 249° @ 0310 AM 35 31 70 58 30.23" 0 0 0 27 0
Dozier 3W  03:15 AM 29 27 90% SW34 6 mph 279° @ 1203 AM 36 29 92 73 30.19" 0 0 0   0
Earth 9WSW  03:15 AM 30 25 82% W89 21 mph 208° @ 0108 AM 38 27 87 63 30.23" 0 0 0 22 0
Endee NM 2SW  03:15 AM 33 25 72% W44 10 mph 204° @ 0143 AM 37 32 77 62 30.20" 0 0 0   0
Estelline 3SSE  03:15 AM 36 29 75% SW89 13 mph 176° @ 1202 AM 38 32 83 65 30.19" 0 0 0   0
Floydada 2NNE  03:15 AM 31 26 83% SW810 11 mph 226° @ 0145 AM 34 30 84 74 30.21" 0 0 0 23 0
Fluvanna 3WNW  02:45 AM 35 27 72% SW66 8 mph 193° @ 0120 AM 36 34 74 68 30.25" 0 0 0   0
Fort Chadbourne  03:15 AM 31 29 94% NW34 5 mph 299° @ 0121 AM 33 29 98 91 30.28" 0 0 0   0
Fort Lancaster  03:15 AM 29 28 96% SE00 5 mph 281° @ 1221 AM 34 28 96 83 30.30" 0 0 0   0
Fort Lewis CO  03:15 AM 25 16 68% N55 9 mph 33° @ 1237 AM 31 22 78 58 30.35" 0 0 0   0
Fort McKavett  03:15 AM 28 25 88% SW45 6 mph 215° @ 0100 AM 30 28 92 86 30.30" 0 0 0   0
Friona 2NE  03:15 AM 29 26 89% W78 12 mph 244° @ 0145 AM 33 29 92 81 30.21" 0 0 0 22 0
Fritch 1WNW  03:15 AM 35 27 72% SW1012 15 mph 213° @ 0225 AM 37 35 73 68 30.17" 0 0 0 28 0
Gail 2ESE  03:15 AM 36 26 67% SW99 10 mph 237° @ 0305 AM 37 32 78 67 30.24" 0 0 0   0
Goodlett 3W  03:15 AM 29 26 88% SW78 9 mph 214° @ 0100 AM 33 29 88 77 30.20" 0 0 0 22 0
Goodnight  03:15 AM 34 28 80% W1011 14 mph 263° @ 0155 AM 36 32 83 74 30.19" 0 0 0 26 0
Graham 5SSW  03:15 AM 37 27 68% SW1213 16 mph 254° @ 0250 AM 41 37 69 56 30.23" 0 0 0   0
Guadalupe Mtns Natl Park  03:15 AM 40 21 45% W67 12 mph 273° @ 1250 AM 41 37 52 42 30.28" 0 0 0   0
Guthrie 10WSW  03:15 AM 36 27 68% SW67 11 mph 231° @ 0220 AM 37 35 70 66 30.22" 0 0 0   0
Hackberry 2 SSE  03:15 AM 37 28 70% SW88 15 mph 204° @ 0129 AM 39 37 70 63 30.22" 0 0 0   0
Happy 1E  03:15 AM 32 27 82% W1011 17 mph 257° @ 0207 AM 34 32 82 77 30.21" 0 0 0 24 0
Hart 3N  03:15 AM 27 25 92% W78 10 mph 259° @ 0155 AM 29 27 92 88 30.21" 0 0 0 20 0
Haskell 1NW  03:15 AM 33 28 82% S77 9 mph 208° @ 0220 AM 35 33 82 71 30.24" 0 0 0 27 0
Hereford 2NW  03:15 AM 29 25 84% SW78 11 mph 233° @ 0140 AM 31 29 85 82 30.19" 0 0 0 22 0
Hobbs NM 5NW  03:15 AM 31 23 73% W45 10 mph 294° @ 1242 AM 35 31 73 61 30.27" 0 0 0   0
Jayton 1SSE  03:15 AM 32 27 83% W89 10 mph 266° @ 0245 AM 37 32 83 66 30.24" 0 0 0 25 0
Junction 1SSW  03:15 AM 26 25 95% S33 5 mph 171° @ 0128 AM 29 26 95 88 30.31" 0 0 0   0
Knox City 3NW  03:15 AM 31 29 91% SW56 7 mph 214° @ 0200 AM 33 31 92 84 30.24" 0 0 0 26 0
Lake Alan Henry 1NW  03:15 AM 35 28 75% SW78 9 mph 253° @ 0307 AM 38 35 78 65 30.23" 0 0 0 29 0
Lamesa 2SE  03:15 AM 32 26 79% SW12 6 mph 223° @ 1215 AM 36 32 80 70 30.25" 0 0 0   0
Lesley 2S  03:15 AM 28 26 91% W55 9 mph 280° @ 0233 AM 31 28 95 85 30.20" 0 0 0   0
Levelland 4S  03:15 AM 28 24 85% W89 9 mph 254° @ 0310 AM 33 27 87 76 30.23" 0 0 0 20 0
Lomax 1SSE  03:15 AM 31 27 85% SW34 6 mph 149° @ 0147 AM 36 30 87 73 30.28" 0 0 0   0
Lubbock 3WNW TTU  03:15 AM 32 26 79% SW55 7 mph 216° @ 0105 AM 35 30 86 73 30.24" 0 0 0   0
McCamey 1SSW  03:15 AM 35 27 72% N12 6 mph 146° @ 1204 AM 38 34 75 65 30.29" 0 0 0   0
McLean 1E  03:15 AM 40 28 63% SW1417 17 mph 245° @ 0310 AM 40 35 73 63 30.15" 0 0 0   0
Memphis 1NE  03:15 AM 28 27 95% N00 4 mph 275° @ 0200 AM 30 28 95 91 30.19" 0 0 0   0
Menard 2NW   03:15 AM 26 25 95% W44 4 mph 271° @ 0313 AM 29 26 95 91 30.30" 0 0 0   0
Mertzon 3NNE  03:15 AM 28 27 94% SW34 7 mph 205° @ 1246 AM 30 28 94 90 30.30" 0 0 0   0
Morton 1ENE  03:15 AM 27 22 81% W67 10 mph 215° @ 1205 AM 36 27 81 66 30.23" 0 0 0 20 0
Muleshoe 2SSW  03:15 AM 27 24 91% W67 10 mph 238° @ 0300 AM 28 24 95 88 30.23" 0 0 0 20 0
New Home  03:15 AM 32 28 85% W88 9 mph 233° @ 1234 AM 34 31 86 79 30.25" 0 0 0 25 0
Northfield 1S  03:15 AM 31 27 87% SW77 10 mph 240° @ 0100 AM 36 30 88 70 30.20" 0 0 0 25 0
O'Donnell 1N  03:15 AM 32 26 77% SW67 7 mph 215° @ 0255 AM 34 32 80 75 30.24" 0 0 0 26 0
Odell 4ENE  03:15 AM 36 28 71% S911 12 mph 193° @ 0306 AM 36 32 83 70 30.23" 0 0 0   0
Olton 6S  03:15 AM 29 25 86% SW1011 12 mph 247° @ 0305 AM 30 29 88 84 30.22" 0 0 0 20 0
Paducah 10SW  03:15 AM 42 29 60% SW1317 17 mph 240° @ 0315 AM 42 37 69 60 30.20" 0 0 0   0
Palo Duro 4E (JA Ranch)  03:15 AM 36 27 69% S22 7 mph 234° @ 1221 AM 40 28 87 61 30.20" 0 0 0   0
Palo Duro Canyon SP Floor  03:15 AM 31 28 89% NW34 8 mph 326° @ 0230 AM 31 28 95 89 30.21" 0 0 0   0
Palo Duro Canyon State Park Rim  03:15 AM 33 26 76% W79 14 mph 267° @ 0212 AM 38 33 76 60 30.20" 0 0 0 27 0
Pampa 2E  03:15 AM 38 29 71% SW1014 14 mph 234° @ 0315 AM 39 34 80 68 30.15" 0 0 0   0
Panhandle 1SSW  03:15 AM 31 27 86% SW89 14 mph 226° @ 0159 AM 33 31 86 80 30.18" 0 0 0 24 0
Plains 3N  03:15 AM 29 24 82% W79 10 mph 281° @ 0135 AM 35 28 84 66 30.24" 0 0 0 22 0
Plainview 1S  03:15 AM 33 29 84% SW69 10 mph 235° @ 0225 AM 34 31 89 82 30.21" 0 0 0 27 0
Post 1NE  03:15 AM 40 26 58% SW1114 16 mph 243° @ 0250 AM 42 39 60 54 30.23" 0 0 0   0
Ralls 1SE  03:15 AM 31 25 79% W89 11 mph 236° @ 0150 AM 34 31 79 73 30.23" 0 0 0 24 0
Reese Center  03:15 AM 30 25 83% W88 11 mph 229° @ 1220 AM 32 30 85 79 30.23" 0 0 0 23 0
Roaring Springs 3N  03:15 AM 37 30 78% W911 14 mph 258° @ 0235 AM 39 36 78 69 30.21" 0 0 0   0
Romero 11 SSW  03:15 AM 31 27 84% W78 9 mph 241° @ 1232 AM 35 29 85 74 30.18" 0 0 0 24 0
Rotan 5W  03:15 AM 38 28 67% SW1214 15 mph 227° @ 0225 AM 39 37 71 65 30.24" 0 0 0   0
San Angelo 7NW  03:15 AM 28 24 86% NW56 6 mph 329° @ 0155 AM 30 28 86 84 30.29" 0 0 0 22 0
Seagraves 1SW  03:15 AM 29 24 81% NW55 5 mph 301° @ 0305 AM 32 27 86 76 30.24" 0 0 0   0
Seminole 2NNE  03:15 AM 33 25 72% W68 9 mph 256° @ 0150 AM 38 31 77 61 30.25" 0 0 0 27 0
Seymour 3NW  03:15 AM 33 28 81% S45 7 mph 225° @ 0240 AM 34 33 83 74 30.25" 0 0 0   0
Sierra Blanca 1SSE  03:15 AM 41 16 36% N33 5 mph 7° @ 1201 AM 42 38 42 34 30.31" 0 0 0   0
Silverton 7ESE  03:15 AM 32 28 83% SW911 14 mph 243° @ 0300 AM 34 31 87 81 30.21" 0 0 0 24 0
Slaton 2NE  03:15 AM 36 27 72% SW1114 14 mph 235° @ 0305 AM 37 33 80 72 30.23" 0 0 0   0
Snyder 3E  03:15 AM 33 28 85% S77 9 mph 207° @ 0110 AM 36 33 85 73 30.25" 0 0 0 27 0
Snyder 3SSW  03:15 AM 33 28 81% SW78 11 mph 214° @ 0102 AM 38 33 81 67 30.26" 0 0 0 27 0
Spur 1W  03:15 AM 34 28 79% W44 7 mph 286° @ 0210 AM 34 30 88 77 30.22" 0 0 0   0
St. Lawrence 5SW  03:15 AM 36 26 67% S79 12 mph 201° @ 0220 AM 39 36 69 61 30.27" 0 0 0   0
Stamford 5ESE  03:15 AM 32 29 87% S55 8 mph 205° @ 0202 AM 35 32 89 79 30.25" 0 0 0   0
Sterling City 4WSW  03:15 AM 26 25 98% N00 4 mph 330° @ 1236 AM 29 26 98 90 30.29" 0 0 0   0
Stinnett 1NNW  03:15 AM 35 27 72% W1920 21 mph 259° @ 0311 AM 36 34 77 72 30.15" 0 0 0 24 0
Sundown 8WSW  03:15 AM 29 23 79% W910 12 mph 266° @ 0210 AM 32 28 80 73 30.23" 0 0 0 20 0
Sweetwater 11SW   03:15 AM 35 26 70% S67 8 mph 170° @ 0300 AM 38 35 71 63 30.27" 0 0 0   0
Tahoka 3NNE  03:15 AM 33 25 74% SW78 10 mph 226° @ 0208 AM 34 32 77 73 30.23" 0 0 0 27 0
Tarzan 2WNW  03:15 AM 32 27 82% SW77 9 mph 250° @ 0246 AM 36 32 83 72 30.27" 0 0 0 26 0
Tatum NM 2SW  03:15 AM 25 21 84% W77 11 mph 282° @ 1240 AM 30 25 84 76 30.24" 0 0 0 17 0
Throckmorton 1SW  03:15 AM 34 25 69% SW78 9 mph 235° @ 0308 AM 37 34 76 59 30.25" 0 0 0 28 0
Tulia 2ENE  03:15 AM 36 27 72% SW1418 21 mph 242° @ 0255 AM 37 34 77 70 30.20" 0 0 0   0
Turkey 2WSW  03:15 AM 38 30 72% SW1416 16 mph 221° @ 0315 AM 38 34 85 72 30.19" 0 0 0   0
Umbarger 3NNE  03:15 AM 31 27 86% SW1112 16 mph 238° @ 0222 AM 33 31 87 81 30.19" 0 0 0 22 0
Van Horn 3ENE  03:15 AM 34 19 54% SW79 13 mph 207° @ 0237 AM 38 34 54 47 30.31" 0 0 0 28 0
Vigo Park  03:15 AM 31 28 86% SW1112 13 mph 240° @ 0303 AM 32 29 89 83 30.21" 0 0 0 22 0
Wall 2E  03:15 AM 31 28 88% W67 9 mph 257° @ 0131 AM 33 30 90 84 30.30" 0 0 0 25 0
Weinert 2NNE  03:15 AM 35 27 73% S79 10 mph 202° @ 0124 AM 38 34 78 63 30.25" 0 0 0 29 0
Welch  03:15 AM 29 25 88% W44 5 mph 251° @ 0257 AM 34 28 89 73 30.26" 0 0 0   0
White River Lake 6NW  03:15 AM 42 25 52% W810 12 mph 230° @ 0110 AM 42 39 59 50 30.22" 0 0 0   0
Wolfforth 6SSW  03:15 AM 31 26 82% SW78 9 mph 224° @ 1210 AM 35 31 82 76 30.24" 0 0 0 24 0

West Texas Mesonet Home   Site Map/Menu  NWS Lubbock Soil Data  Daily Summary Page  24hr Precip  72hr Precip  Google Plot